To NAV CANADA Home Page Login to a new session Search on AWWS site Feedback and Comments Disclaimer Vers la page française équivalente Tips FAQ What's new on the site To the Forecasts and Observations / NOTAM section To "File a Flight Plan" website Publications and other links Update of the User's profile FIC Telephone Numbers My Weather Data Folder Route Weather Data Regional Weather Data Local Weather Data To the Forecasts and Observations / NOTAM section
Request Generated 03/05/2015 at 18:39:25 UTC . Weather information available at that time is displayed.

METAR/TAF

RANKIN INLET/NU    

METAR CYRT 051800Z 32005KT 15SM IC BKN280 M35/M40 A2967 RMK CI5
SLP055=
METAR CYRT 051700Z 31006KT 15SM IC BKN280 M36/M41 A2969 RMK CI5
SLP059=
METAR CYRT 051600Z 34009KT 15SM IC SCT280 M37/M41 A2969 RMK CI4
SLP060=

TAF CYRT 051738Z 0518/0606 31005KT P6SM IC FEW240
RMK NXT FCST BY 060000Z=
Your time UTC time
Weather data provided by Environment Canada and NAV CANADA